createdAt,value
2022-12-04T00:00:45.812Z,2.99
2022-12-04T00:03:12.432Z,2.99
2022-12-04T00:05:38.985Z,2.99
2022-12-04T00:08:05.380Z,3.00
2022-12-04T00:10:31.786Z,2.99
2022-12-04T00:12:58.728Z,3.00
2022-12-04T00:15:26.453Z,3.01
2022-12-04T00:17:53.250Z,3.02
2022-12-04T00:20:19.917Z,3.01
2022-12-04T00:22:46.269Z,3.02
2022-12-04T00:25:12.606Z,3.02
2022-12-04T00:27:38.935Z,3.02
2022-12-04T00:30:05.951Z,3.00
2022-12-04T00:32:32.361Z,3.00
2022-12-04T00:34:58.777Z,2.98
2022-12-04T00:37:25.209Z,2.97
2022-12-04T00:39:51.638Z,2.97
2022-12-04T00:42:18.009Z,2.95
2022-12-04T00:44:44.345Z,2.95
2022-12-04T00:47:10.654Z,2.95
2022-12-04T00:49:37.105Z,2.94
2022-12-04T00:52:03.579Z,2.92
2022-12-04T00:54:31.459Z,2.92
2022-12-04T00:56:57.779Z,2.90
2022-12-04T00:59:24.093Z,2.88
2022-12-04T01:01:50.409Z,2.86
2022-12-04T01:04:16.782Z,2.85
2022-12-04T01:06:43.151Z,2.84
2022-12-04T01:09:09.612Z,2.82
2022-12-04T01:11:36.508Z,2.83
2022-12-04T01:14:02.825Z,2.82
2022-12-04T01:16:33.576Z,2.83
2022-12-04T01:19:01.062Z,2.83
2022-12-04T01:21:27.419Z,2.83
2022-12-04T01:23:54.405Z,2.82
2022-12-04T01:26:21.104Z,2.81
2022-12-04T01:28:47.446Z,2.81
2022-12-04T01:31:16.462Z,2.80
2022-12-04T01:33:43.574Z,2.78
2022-12-04T01:36:16.267Z,2.77
2022-12-04T01:38:42.935Z,2.77
2022-12-04T01:41:11.614Z,2.77
2022-12-04T01:43:39.195Z,2.76
2022-12-04T01:46:07.635Z,2.77
2022-12-04T01:48:35.527Z,2.76
2022-12-04T01:51:18.589Z,2.76
2022-12-04T01:53:52.904Z,2.78
2022-12-04T01:56:24.040Z,2.77
2022-12-04T01:58:54.849Z,2.77
2022-12-04T02:01:21.431Z,2.78
2022-12-04T02:03:48.461Z,2.79
2022-12-04T02:06:14.797Z,2.80
2022-12-04T02:08:41.382Z,2.80
2022-12-04T02:11:35.390Z,2.81
2022-12-04T02:14:16.525Z,2.80
2022-12-04T02:16:55.362Z,2.79
2022-12-04T02:19:52.974Z,2.77
2022-12-04T02:22:38.718Z,2.74
2022-12-04T02:25:25.674Z,2.73
2022-12-04T02:28:02.972Z,2.72
2022-12-04T02:30:31.393Z,2.70
2022-12-04T02:33:07.443Z,2.70
2022-12-04T02:35:44.586Z,2.69
2022-12-04T02:38:35.752Z,2.68
2022-12-04T02:41:17.105Z,2.68
2022-12-04T02:43:47.470Z,2.67
2022-12-04T02:46:23.731Z,2.67
2022-12-04T02:48:53.271Z,2.64
2022-12-04T02:51:21.582Z,2.63
2022-12-04T02:53:53.415Z,2.64
2022-12-04T02:56:25.057Z,2.64
2022-12-04T02:59:00.689Z,2.63
2022-12-04T03:01:29.754Z,2.67
2022-12-04T03:04:05.093Z,2.66
2022-12-04T03:06:35.894Z,2.66
2022-12-04T03:09:10.345Z,2.64
2022-12-04T03:11:40.162Z,2.63
2022-12-04T03:14:19.191Z,2.62
2022-12-04T03:16:48.613Z,2.63
2022-12-04T03:19:29.599Z,2.65
2022-12-04T03:22:02.759Z,2.64
2022-12-04T03:24:42.100Z,2.64
2022-12-04T03:27:11.174Z,2.65
2022-12-04T03:29:58.994Z,2.64
2022-12-04T03:32:31.451Z,2.66
2022-12-04T03:35:21.785Z,2.64
2022-12-04T03:37:56.940Z,2.66
2022-12-04T03:40:36.090Z,2.65
2022-12-04T03:43:15.542Z,2.64
2022-12-04T03:45:56.337Z,2.66
2022-12-04T03:48:43.736Z,2.64
2022-12-04T03:51:17.186Z,2.66
2022-12-04T03:53:55.387Z,2.67
2022-12-04T03:56:26.772Z,2.68
2022-12-04T03:58:59.151Z,2.69
2022-12-04T04:01:32.170Z,2.71
2022-12-04T04:04:01.907Z,2.72
2022-12-04T04:06:36.562Z,2.73
2022-12-04T04:09:08.778Z,2.74
2022-12-04T04:11:42.588Z,2.76
2022-12-04T04:14:32.810Z,2.77
2022-12-04T04:17:36.478Z,2.78
2022-12-04T04:20:27.979Z,2.79
2022-12-04T04:23:16.669Z,2.79
2022-12-04T04:25:45.426Z,2.78
2022-12-04T04:28:37.899Z,2.78
2022-12-04T04:31:30.506Z,2.79
2022-12-04T04:34:12.711Z,2.78
2022-12-04T04:36:54.183Z,2.79
2022-12-04T04:39:36.566Z,2.78
2022-12-04T04:42:14.146Z,2.77
2022-12-04T04:45:08.333Z,2.76
2022-12-04T04:47:44.802Z,2.77
2022-12-04T04:50:12.589Z,2.77
2022-12-04T04:52:43.840Z,2.77
2022-12-04T04:55:10.832Z,2.79
2022-12-04T04:57:37.469Z,2.80
2022-12-04T05:00:16.157Z,2.83
2022-12-04T05:02:43.571Z,2.83
2022-12-04T05:05:10.209Z,2.87
2022-12-04T05:07:36.548Z,2.90
2022-12-04T05:10:03.371Z,2.91
2022-12-04T05:12:29.721Z,2.94
2022-12-04T05:14:56.036Z,2.96
2022-12-04T05:17:22.641Z,3.00
2022-12-04T05:19:56.230Z,2.99
2022-12-04T05:22:26.650Z,3.02
2022-12-04T05:24:53.841Z,3.04
2022-12-04T05:27:21.062Z,3.06
2022-12-04T05:29:47.817Z,3.07
2022-12-04T05:32:14.752Z,3.08
2022-12-04T05:34:41.131Z,3.10
2022-12-04T05:37:07.452Z,3.11
2022-12-04T05:39:34.568Z,3.13
2022-12-04T05:42:01.011Z,3.14
2022-12-04T05:44:27.316Z,3.15
2022-12-04T05:46:53.761Z,3.16
2022-12-04T05:49:20.157Z,3.16
2022-12-04T05:51:46.495Z,3.18
2022-12-04T05:54:13.130Z,3.18
2022-12-04T05:56:39.486Z,3.18
2022-12-04T05:59:05.830Z,3.18
2022-12-04T06:01:32.318Z,3.16
2022-12-04T06:03:59.207Z,3.16
2022-12-04T06:06:26.256Z,3.15
2022-12-04T06:08:56.274Z,3.14
2022-12-04T06:11:28.695Z,3.13
2022-12-04T06:13:56.471Z,3.13
2022-12-04T06:16:25.440Z,3.15
2022-12-04T06:18:53.675Z,3.16
2022-12-04T06:21:21.818Z,3.18
2022-12-04T06:23:48.764Z,3.20
2022-12-04T06:26:15.462Z,3.20
2022-12-04T06:28:41.847Z,3.22
2022-12-04T06:31:11.823Z,3.23
2022-12-04T06:33:38.870Z,3.24
2022-12-04T06:36:08.388Z,3.25
2022-12-04T06:38:35.367Z,3.25
2022-12-04T06:41:09.754Z,3.28
2022-12-04T06:43:36.250Z,3.26
2022-12-04T06:46:05.897Z,3.27
2022-12-04T06:48:33.315Z,3.28
2022-12-04T06:51:00.400Z,3.30
2022-12-04T06:53:30.408Z,3.28
2022-12-04T06:55:59.447Z,3.28
2022-12-04T06:58:26.953Z,3.28
2022-12-04T07:00:53.946Z,3.27
2022-12-04T07:03:21.115Z,3.27
2022-12-04T07:05:47.453Z,3.26
2022-12-04T07:08:15.491Z,3.26
2022-12-04T07:10:42.072Z,3.26
2022-12-04T07:13:09.311Z,3.25
2022-12-04T07:15:37.173Z,3.25
2022-12-04T07:18:05.032Z,3.25
2022-12-04T07:20:32.029Z,3.25
2022-12-04T07:23:01.520Z,3.26
2022-12-04T07:25:31.979Z,3.26
2022-12-04T07:27:58.302Z,3.26
2022-12-04T07:30:24.639Z,3.26
2022-12-04T07:32:50.974Z,3.26
2022-12-04T07:35:17.460Z,3.25
2022-12-04T07:37:43.859Z,3.24
2022-12-04T07:40:10.748Z,3.24
2022-12-04T07:42:37.065Z,3.22
2022-12-04T07:45:03.670Z,3.23
2022-12-04T07:47:30.024Z,3.24
2022-12-04T07:49:56.504Z,3.25
2022-12-04T07:52:23.174Z,3.26
2022-12-04T07:54:49.562Z,3.28
2022-12-04T07:57:15.883Z,3.28
2022-12-04T07:59:42.200Z,3.30
2022-12-04T08:02:08.871Z,3.33
2022-12-04T08:04:36.818Z,3.35
2022-12-04T08:07:03.293Z,3.36
2022-12-04T08:09:29.645Z,3.39
2022-12-04T08:11:55.987Z,3.40
2022-12-04T08:14:22.311Z,3.42
2022-12-04T08:16:52.856Z,3.44
2022-12-04T08:19:19.545Z,3.45
2022-12-04T08:21:45.928Z,3.46
2022-12-04T08:24:12.503Z,3.46
2022-12-04T08:26:38.867Z,3.48
2022-12-04T08:29:05.964Z,3.50
2022-12-04T08:31:34.239Z,3.51
2022-12-04T08:34:03.304Z,3.54
2022-12-04T08:36:30.071Z,3.56
2022-12-04T08:38:56.485Z,3.58
2022-12-04T08:41:26.007Z,3.60
2022-12-04T08:43:57.687Z,3.62
2022-12-04T08:46:25.667Z,3.63
2022-12-04T08:48:52.423Z,3.65
2022-12-04T08:51:24.386Z,3.66
2022-12-04T08:53:55.554Z,3.67
2022-12-04T08:56:22.341Z,3.67
2022-12-04T08:58:48.938Z,3.69
2022-12-04T09:01:15.669Z,3.70
2022-12-04T09:03:42.460Z,3.71
2022-12-04T09:06:11.214Z,3.74
2022-12-04T09:08:38.101Z,3.74
2022-12-04T09:11:06.474Z,3.75
2022-12-04T09:13:33.638Z,3.75
2022-12-04T09:16:00.102Z,3.76
2022-12-04T09:18:26.513Z,3.76
2022-12-04T09:20:57.461Z,3.78
2022-12-04T09:23:25.178Z,3.78
2022-12-04T09:25:51.552Z,3.78
2022-12-04T09:28:18.249Z,3.79
2022-12-04T09:30:44.862Z,3.80
2022-12-04T09:33:11.369Z,3.80
2022-12-04T09:35:40.509Z,3.82
2022-12-04T09:38:06.821Z,3.81
2022-12-04T09:40:46.225Z,3.82
2022-12-04T09:43:28.991Z,3.80
2022-12-04T09:46:01.369Z,3.81
2022-12-04T09:48:35.689Z,3.82
2022-12-04T09:51:05.440Z,3.83
2022-12-04T09:54:03.115Z,3.83
2022-12-04T09:56:32.081Z,3.84
2022-12-04T09:59:06.754Z,3.86
2022-12-04T10:01:39.340Z,3.87
2022-12-04T10:04:06.620Z,3.86
2022-12-04T10:06:42.110Z,3.88
2022-12-04T10:09:21.665Z,3.88
2022-12-04T10:12:15.283Z,3.89
2022-12-04T10:15:07.489Z,3.90
2022-12-04T10:17:49.598Z,3.91
2022-12-04T10:20:31.184Z,3.92
2022-12-04T10:23:00.545Z,3.93
2022-12-04T10:25:28.689Z,3.95
2022-12-04T10:28:01.481Z,4.00
2022-12-04T10:30:34.486Z,4.02
2022-12-04T10:33:11.318Z,4.05
2022-12-04T10:35:37.866Z,4.05
2022-12-04T10:38:10.688Z,4.07
2022-12-04T10:40:57.690Z,4.09
2022-12-04T10:43:43.992Z,4.09
2022-12-04T10:46:15.314Z,4.10
2022-12-04T10:48:46.619Z,4.12
2022-12-04T10:51:17.893Z,4.13
2022-12-04T10:53:45.713Z,4.14
2022-12-04T10:56:19.658Z,4.14
2022-12-04T10:59:03.898Z,4.15
2022-12-04T11:01:32.404Z,4.16
2022-12-04T11:04:18.435Z,4.21
2022-12-04T11:06:45.070Z,4.23
2022-12-04T11:09:23.518Z,4.26
2022-12-04T11:11:50.924Z,4.26
2022-12-04T11:14:23.075Z,4.28
2022-12-04T11:17:01.274Z,4.28
2022-12-04T11:19:31.000Z,4.29
2022-12-04T11:22:04.311Z,4.31
2022-12-04T11:24:34.654Z,4.31
2022-12-04T11:27:03.033Z,4.31
2022-12-04T11:29:35.505Z,4.34
2022-12-04T11:32:07.565Z,4.34
2022-12-04T11:34:41.393Z,4.37
2022-12-04T11:37:20.867Z,4.36
2022-12-04T11:39:47.531Z,4.37
2022-12-04T11:42:13.779Z,4.37
2022-12-04T11:44:50.558Z,4.38
2022-12-04T11:47:18.651Z,4.37
2022-12-04T11:49:46.001Z,4.35
2022-12-04T11:52:38.100Z,4.32
2022-12-04T11:55:15.059Z,4.28
2022-12-04T11:57:48.421Z,4.27
2022-12-04T12:00:22.621Z,4.25
2022-12-04T12:03:30.906Z,4.23
2022-12-04T12:06:12.217Z,4.23
2022-12-04T12:08:56.451Z,4.22
2022-12-04T12:11:34.403Z,4.22
2022-12-04T12:14:41.083Z,4.19
2022-12-04T12:17:25.398Z,4.17
2022-12-04T12:20:20.203Z,4.16
2022-12-04T12:22:58.674Z,4.15
2022-12-04T12:25:36.209Z,4.13
2022-12-04T12:28:08.209Z,4.12
2022-12-04T12:30:53.419Z,4.13
2022-12-04T12:33:25.201Z,4.12
2022-12-04T12:36:21.470Z,4.14
2022-12-04T12:38:54.426Z,4.14
2022-12-04T12:41:38.701Z,4.14
2022-12-04T12:44:12.647Z,4.16
2022-12-04T12:46:53.473Z,4.14
2022-12-04T12:49:29.784Z,4.13
2022-12-04T12:52:17.325Z,4.12
2022-12-04T12:54:43.809Z,4.11
2022-12-04T12:57:28.927Z,4.12
2022-12-04T13:00:00.108Z,4.13
2022-12-04T13:03:00.057Z,4.14
2022-12-04T13:05:34.836Z,4.16
2022-12-04T13:08:16.258Z,4.18
2022-12-04T13:10:47.705Z,4.19
2022-12-04T13:13:26.997Z,4.19
2022-12-04T13:16:08.015Z,4.20
2022-12-04T13:18:40.670Z,4.18
2022-12-04T13:21:08.802Z,4.17
2022-12-04T13:24:05.546Z,4.17
2022-12-04T13:26:58.271Z,4.14
2022-12-04T13:29:47.254Z,4.15
2022-12-04T13:33:08.544Z,4.14
2022-12-04T13:35:58.159Z,4.14
2022-12-04T13:38:58.242Z,4.13
2022-12-04T13:41:27.484Z,4.12
2022-12-04T13:43:55.009Z,4.10
2022-12-04T13:46:28.465Z,4.11
2022-12-04T13:48:55.431Z,4.11
2022-12-04T13:51:38.078Z,4.12
2022-12-04T13:54:10.449Z,4.13
2022-12-04T13:56:38.411Z,4.13
2022-12-04T13:59:19.488Z,4.15
2022-12-04T14:01:48.581Z,4.14
2022-12-04T14:04:40.718Z,4.14
2022-12-04T14:07:07.265Z,4.14
2022-12-04T14:09:43.714Z,4.13
2022-12-04T14:12:13.932Z,4.12
2022-12-04T14:14:52.367Z,4.10
2022-12-04T14:17:25.353Z,4.08
2022-12-04T14:20:00.768Z,4.07
2022-12-04T14:22:35.488Z,4.06
2022-12-04T14:25:23.136Z,4.05
2022-12-04T14:27:53.445Z,4.05
2022-12-04T14:30:29.692Z,4.04
2022-12-04T14:33:17.758Z,4.02
2022-12-04T14:35:50.133Z,4.01
2022-12-04T14:38:22.221Z,3.99
2022-12-04T14:40:52.305Z,3.98
2022-12-04T14:43:24.496Z,3.97
2022-12-04T14:46:00.229Z,3.97
2022-12-04T14:48:32.653Z,4.02
2022-12-04T14:51:10.849Z,4.02
2022-12-04T14:53:54.539Z,4.00
2022-12-04T14:56:45.473Z,4.00
2022-12-04T14:59:17.400Z,3.97
2022-12-04T15:01:47.120Z,3.97
2022-12-04T15:04:19.806Z,3.97
2022-12-04T15:06:48.962Z,3.96
2022-12-04T15:09:37.771Z,3.98
2022-12-04T15:12:34.141Z,4.00
2022-12-04T15:15:27.485Z,4.02
2022-12-04T15:18:26.250Z,4.03
2022-12-04T15:20:59.878Z,4.01
2022-12-04T15:23:35.507Z,4.01
2022-12-04T15:26:03.535Z,4.03
2022-12-04T15:28:57.387Z,4.00
2022-12-04T15:31:28.031Z,3.96
2022-12-04T15:34:00.488Z,3.91
2022-12-04T15:36:33.043Z,3.88
2022-12-04T15:39:00.178Z,3.85
2022-12-04T15:41:31.230Z,3.82
2022-12-04T15:43:58.119Z,3.80
2022-12-04T15:46:36.161Z,3.78
2022-12-04T15:49:20.352Z,3.76
2022-12-04T15:51:48.181Z,3.77
2022-12-04T15:54:23.858Z,3.76
2022-12-04T15:56:57.375Z,3.78
2022-12-04T15:59:27.421Z,3.78
2022-12-04T16:01:54.133Z,3.76
2022-12-04T16:04:22.426Z,3.74
2022-12-04T16:06:51.514Z,3.73
2022-12-04T16:09:17.749Z,3.71
2022-12-04T16:11:44.374Z,3.71
2022-12-04T16:14:15.241Z,3.72
2022-12-04T16:16:50.316Z,3.71
2022-12-04T16:19:31.719Z,3.72
2022-12-04T16:21:58.327Z,3.73
2022-12-04T16:24:25.347Z,3.71
2022-12-04T16:26:54.865Z,3.73
2022-12-04T16:29:22.225Z,3.73
2022-12-04T16:31:49.115Z,3.74
2022-12-04T16:34:15.563Z,3.76
2022-12-04T16:36:41.997Z,3.77
2022-12-04T16:39:08.370Z,3.79
2022-12-04T16:41:34.753Z,3.78
2022-12-04T16:44:01.832Z,3.80
2022-12-04T16:46:29.646Z,3.81
2022-12-04T16:48:56.501Z,3.81
2022-12-04T16:51:25.376Z,3.81
2022-12-04T16:53:54.519Z,3.82
2022-12-04T16:56:21.416Z,3.82
2022-12-04T16:58:47.938Z,3.82
2022-12-04T17:01:27.602Z,3.85
2022-12-04T17:03:54.003Z,3.86
2022-12-04T17:06:20.754Z,3.86
2022-12-04T17:08:47.274Z,3.88
2022-12-04T17:11:15.663Z,3.88
2022-12-04T17:13:42.542Z,3.89
2022-12-04T17:16:11.252Z,3.90
2022-12-04T17:18:40.428Z,3.92
2022-12-04T17:21:08.318Z,3.93
2022-12-04T17:23:35.298Z,3.93
2022-12-04T17:26:07.046Z,3.96
2022-12-04T17:28:34.447Z,3.94
2022-12-04T17:31:02.511Z,3.96
2022-12-04T17:33:28.963Z,3.96
2022-12-04T17:35:55.985Z,3.96
2022-12-04T17:38:22.310Z,3.96
2022-12-04T17:41:01.954Z,3.96
2022-12-04T17:43:29.683Z,3.96
2022-12-04T17:45:56.584Z,3.96
2022-12-04T17:48:24.272Z,3.96
2022-12-04T17:50:50.889Z,3.97
2022-12-04T17:53:17.400Z,3.96
2022-12-04T17:55:43.787Z,3.96
2022-12-04T17:58:10.101Z,3.96
2022-12-04T18:00:36.877Z,3.99
2022-12-04T18:03:03.391Z,3.97
2022-12-04T18:05:30.539Z,3.99
2022-12-04T18:07:56.937Z,4.00
2022-12-04T18:10:24.291Z,4.01
2022-12-04T18:12:50.641Z,4.02
2022-12-04T18:15:16.968Z,4.02
2022-12-04T18:17:43.344Z,4.02
2022-12-04T18:20:10.370Z,4.02
2022-12-04T18:22:37.102Z,4.04
2022-12-04T18:25:03.663Z,4.05
2022-12-04T18:27:30.118Z,4.06
2022-12-04T18:29:56.679Z,4.07
2022-12-04T18:32:23.251Z,4.07
2022-12-04T18:34:49.630Z,4.09
2022-12-04T18:37:15.941Z,4.11
2022-12-04T18:39:42.277Z,4.13
2022-12-04T18:42:08.596Z,4.15
2022-12-04T18:44:34.940Z,4.16
2022-12-04T18:47:01.274Z,4.17
2022-12-04T18:49:27.626Z,4.19
2022-12-04T18:51:53.930Z,4.19
2022-12-04T18:54:22.998Z,4.21
2022-12-04T18:56:50.480Z,4.22
2022-12-04T18:59:25.749Z,4.23
2022-12-04T19:01:53.632Z,4.24
2022-12-04T19:04:22.538Z,4.25
2022-12-04T19:06:54.802Z,4.26
2022-12-04T19:09:40.987Z,4.27
2022-12-04T19:12:11.499Z,4.27
2022-12-04T19:14:39.580Z,4.28
2022-12-04T19:17:06.038Z,4.30
2022-12-04T19:19:32.448Z,4.31
2022-12-04T19:21:59.071Z,4.33
2022-12-04T19:24:25.775Z,4.35
2022-12-04T19:26:54.201Z,4.36
2022-12-04T19:29:20.525Z,4.37
2022-12-04T19:31:46.991Z,4.38
2022-12-04T19:34:13.380Z,4.39
2022-12-04T19:36:41.112Z,4.39
2022-12-04T19:39:07.501Z,4.40
2022-12-04T19:41:35.143Z,4.40
2022-12-04T19:44:07.847Z,4.40
2022-12-04T19:46:41.216Z,4.42
2022-12-04T19:49:08.102Z,4.43
2022-12-04T19:51:37.975Z,4.43
2022-12-04T19:54:06.185Z,4.43
2022-12-04T19:56:34.106Z,4.44
2022-12-04T19:59:03.065Z,4.45
2022-12-04T20:01:32.270Z,4.44
2022-12-04T20:04:02.491Z,4.45
2022-12-04T20:06:29.979Z,4.44
2022-12-04T20:09:02.580Z,4.44
2022-12-04T20:11:30.284Z,4.42
2022-12-04T20:13:59.585Z,4.42
2022-12-04T20:16:28.203Z,4.41
2022-12-04T20:18:54.912Z,4.40
2022-12-04T20:21:25.495Z,4.40
2022-12-04T20:23:53.858Z,4.40
2022-12-04T20:26:26.051Z,4.40
2022-12-04T20:28:55.084Z,4.41
2022-12-04T20:31:33.526Z,4.42
2022-12-04T20:34:02.598Z,4.42
2022-12-04T20:36:30.445Z,4.40
2022-12-04T20:38:58.242Z,4.42
2022-12-04T20:41:26.930Z,4.42
2022-12-04T20:43:53.302Z,4.40
2022-12-04T20:46:20.858Z,4.42
2022-12-04T20:48:49.287Z,4.43
2022-12-04T20:51:37.535Z,4.44
2022-12-04T20:54:04.488Z,4.42
2022-12-04T20:56:34.224Z,4.43
2022-12-04T20:59:03.604Z,4.43
2022-12-04T21:01:30.971Z,4.42
2022-12-04T21:03:59.111Z,4.42
2022-12-04T21:06:34.441Z,4.41
2022-12-04T21:09:05.739Z,4.42
2022-12-04T21:11:35.370Z,4.42
2022-12-04T21:14:22.155Z,4.42
2022-12-04T21:16:49.185Z,4.42
2022-12-04T21:19:17.936Z,4.43
2022-12-04T21:21:44.506Z,4.44
2022-12-04T21:24:13.437Z,4.44
2022-12-04T21:26:40.144Z,4.43
2022-12-04T21:29:07.699Z,4.45
2022-12-04T21:31:35.804Z,4.44
2022-12-04T21:34:05.256Z,4.45
2022-12-04T21:36:31.795Z,4.45
2022-12-04T21:38:58.316Z,4.43
2022-12-04T21:41:43.270Z,4.42
2022-12-04T21:44:14.882Z,4.43
2022-12-04T21:46:41.408Z,4.40
2022-12-04T21:49:07.895Z,4.40
2022-12-04T21:54:21.242Z,4.41
2022-12-04T21:56:47.777Z,4.42
2022-12-04T21:59:14.506Z,4.39
2022-12-04T22:01:41.517Z,4.39
2022-12-04T22:04:07.985Z,4.39
2022-12-04T22:06:36.116Z,4.39
2022-12-04T22:09:06.121Z,4.39
2022-12-04T22:11:32.547Z,4.39
2022-12-04T22:13:59.018Z,4.39
2022-12-04T22:16:30.383Z,4.39
2022-12-04T22:18:58.246Z,4.39
2022-12-04T22:21:25.269Z,4.39
2022-12-04T22:23:59.440Z,4.38
2022-12-04T22:26:27.472Z,4.38
2022-12-04T22:28:54.417Z,4.37
2022-12-04T22:31:23.333Z,4.39
2022-12-04T22:33:51.455Z,4.37
2022-12-04T22:36:20.523Z,4.38
2022-12-04T22:39:08.058Z,4.38
2022-12-04T22:41:34.393Z,4.39
2022-12-04T22:44:00.827Z,4.40
2022-12-04T22:46:27.336Z,4.40
2022-12-04T22:48:53.774Z,4.41
2022-12-04T22:51:21.695Z,4.42
2022-12-04T22:53:53.108Z,4.43
2022-12-04T22:56:24.864Z,4.45
2022-12-04T22:58:52.160Z,4.46
2022-12-04T23:01:30.906Z,4.47
2022-12-04T23:03:57.989Z,4.47
2022-12-04T23:06:27.482Z,4.47
2022-12-04T23:08:58.874Z,4.49
2022-12-04T23:11:25.720Z,4.48
2022-12-04T23:13:54.130Z,4.49
2022-12-04T23:16:22.418Z,4.48
2022-12-04T23:18:48.967Z,4.50
2022-12-04T23:21:16.773Z,4.51
2022-12-04T23:23:44.466Z,4.53
2022-12-04T23:26:17.674Z,4.54
2022-12-04T23:28:44.124Z,4.54
2022-12-04T23:31:11.031Z,4.55
2022-12-04T23:33:38.596Z,4.56
2022-12-04T23:36:06.553Z,4.58
2022-12-04T23:38:34.793Z,4.59
2022-12-04T23:41:22.707Z,4.59
2022-12-04T23:43:50.442Z,4.59
2022-12-04T23:46:19.696Z,4.59
2022-12-04T23:48:46.819Z,4.59
2022-12-04T23:51:17.811Z,4.61
2022-12-04T23:53:45.000Z,4.60
2022-12-04T23:56:12.807Z,4.61
2022-12-04T23:58:40.211Z,4.60
